createdAt,value
2022-10-12T00:00:45.192Z,10.27
2022-10-12T00:03:13.379Z,9.80
2022-10-12T00:05:43.429Z,9.67
2022-10-12T00:08:11.314Z,9.67
2022-10-12T00:10:41.923Z,8.50
2022-10-12T00:13:10.841Z,9.17
2022-10-12T00:15:40.219Z,8.63
2022-10-12T00:18:08.843Z,8.60
2022-10-12T00:20:37.308Z,9.80
2022-10-12T00:23:06.384Z,8.00
2022-10-12T00:25:37.867Z,8.20
2022-10-12T00:28:06.076Z,7.27
2022-10-12T00:30:35.086Z,8.63
2022-10-12T00:33:02.779Z,8.40
2022-10-12T00:35:30.534Z,8.47
2022-10-12T00:37:58.359Z,8.67
2022-10-12T00:40:27.870Z,8.17
2022-10-12T00:42:55.550Z,7.27
2022-10-12T00:45:26.397Z,7.73
2022-10-12T00:47:57.681Z,7.30
2022-10-12T00:50:28.127Z,8.00
2022-10-12T00:52:59.544Z,8.50
2022-10-12T00:55:33.006Z,8.47
2022-10-12T00:58:01.867Z,8.30
2022-10-12T01:00:30.231Z,9.20
2022-10-12T01:02:59.019Z,8.97
2022-10-12T01:05:26.938Z,8.60
2022-10-12T01:07:54.816Z,9.50
2022-10-12T01:10:23.122Z,10.10
2022-10-12T01:12:52.227Z,7.90
2022-10-12T01:15:20.723Z,7.83
2022-10-12T01:17:58.805Z,7.63
2022-10-12T01:20:43.664Z,9.57
2022-10-12T01:23:34.941Z,10.03
2022-10-12T01:26:30.041Z,9.93
2022-10-12T01:29:13.471Z,8.10
2022-10-12T01:31:48.276Z,9.90
2022-10-12T01:34:23.060Z,8.10
2022-10-12T01:36:58.454Z,8.73
2022-10-12T01:39:33.130Z,9.20
2022-10-12T01:42:05.858Z,9.57
2022-10-12T01:44:37.986Z,10.20
2022-10-12T01:47:09.520Z,8.97
2022-10-12T01:49:38.644Z,10.53
2022-10-12T01:52:29.052Z,8.20
2022-10-12T01:55:12.327Z,9.07
2022-10-12T01:57:51.775Z,8.53
2022-10-12T02:00:21.082Z,8.17
2022-10-12T02:03:01.728Z,9.40
2022-10-12T02:05:37.690Z,8.67
2022-10-12T02:08:11.627Z,8.47
2022-10-12T02:10:45.736Z,9.27
2022-10-12T02:13:16.247Z,8.93
2022-10-12T02:15:45.678Z,8.23
2022-10-12T02:18:19.005Z,10.47
2022-10-12T02:20:50.089Z,8.13
2022-10-12T02:23:19.527Z,8.67
2022-10-12T02:25:48.095Z,9.30
2022-10-12T02:28:19.635Z,8.73
2022-10-12T02:30:53.489Z,7.90
2022-10-12T02:33:26.602Z,8.23
2022-10-12T02:36:01.638Z,8.73
2022-10-12T02:38:34.344Z,8.60
2022-10-12T02:41:06.656Z,8.60
2022-10-12T02:43:39.302Z,8.20
2022-10-12T02:46:10.795Z,9.87
2022-10-12T02:48:41.682Z,10.73
2022-10-12T02:51:12.681Z,9.43
2022-10-12T02:53:41.278Z,8.83
2022-10-12T02:56:14.739Z,7.73
2022-10-12T02:58:44.938Z,8.60
2022-10-12T03:01:13.771Z,8.33
2022-10-12T03:03:42.879Z,9.67
2022-10-12T03:06:11.233Z,12.20
2022-10-12T03:08:39.664Z,10.90
2022-10-12T03:11:12.203Z,10.07
2022-10-12T03:13:39.895Z,10.47
2022-10-12T03:16:10.221Z,10.50
2022-10-12T03:18:38.417Z,9.77
2022-10-12T03:21:07.941Z,11.03
2022-10-12T03:23:35.635Z,10.90
2022-10-12T03:26:03.964Z,10.77
2022-10-12T03:28:32.024Z,11.97
2022-10-12T03:31:00.625Z,10.20
2022-10-12T03:33:28.331Z,10.07
2022-10-12T03:35:56.390Z,9.53
2022-10-12T03:38:25.509Z,11.10
2022-10-12T03:40:53.200Z,10.33
2022-10-12T03:43:20.888Z,14.67
2022-10-12T03:45:49.930Z,12.17
2022-10-12T03:48:17.706Z,12.30
2022-10-12T03:50:50.288Z,15.87
2022-10-12T03:53:18.329Z,14.60
2022-10-12T03:55:48.043Z,12.57
2022-10-12T03:58:16.196Z,12.70
2022-10-12T04:00:44.439Z,10.90
2022-10-12T04:03:12.134Z,12.07
2022-10-12T04:05:40.927Z,11.50
2022-10-12T04:08:11.436Z,10.93
2022-10-12T04:10:39.629Z,11.67
2022-10-12T04:13:09.006Z,13.80
2022-10-12T04:15:36.685Z,14.07
2022-10-12T04:18:04.922Z,13.93
2022-10-12T04:20:32.758Z,10.87
2022-10-12T04:23:00.965Z,12.87
2022-10-12T04:25:30.240Z,14.03
2022-10-12T04:27:58.295Z,12.87
2022-10-12T04:30:27.402Z,11.73
2022-10-12T04:32:56.638Z,11.10
2022-10-12T04:35:24.323Z,11.67
2022-10-12T04:37:52.411Z,11.10
2022-10-12T04:40:20.112Z,10.57
2022-10-12T04:42:48.170Z,11.80
2022-10-12T04:45:16.063Z,12.10
2022-10-12T04:47:45.811Z,11.10
2022-10-12T04:50:13.599Z,10.23
2022-10-12T04:52:41.589Z,13.33
2022-10-12T04:55:10.115Z,12.37
2022-10-12T04:57:38.549Z,12.23
2022-10-12T05:00:07.655Z,13.73
2022-10-12T05:02:35.650Z,10.10
2022-10-12T05:05:04.888Z,10.53
2022-10-12T05:07:33.066Z,11.33
2022-10-12T05:10:00.767Z,10.93
2022-10-12T05:12:29.031Z,13.07
2022-10-12T05:14:58.195Z,12.17
2022-10-12T05:17:26.479Z,11.83
2022-10-12T05:19:54.170Z,10.73
2022-10-12T05:22:23.775Z,12.00
2022-10-12T05:24:53.798Z,11.10
2022-10-12T05:27:22.296Z,10.67
2022-10-12T05:29:49.967Z,13.07
2022-10-12T05:32:18.134Z,14.27
2022-10-12T05:34:46.502Z,13.83
2022-10-12T05:37:14.267Z,12.50
2022-10-12T05:39:44.230Z,11.67
2022-10-12T05:42:11.911Z,11.43
2022-10-12T05:44:39.606Z,12.83
2022-10-12T05:47:07.318Z,11.97
2022-10-12T05:49:35.495Z,14.20
2022-10-12T05:52:03.375Z,11.07
2022-10-12T05:54:31.092Z,13.50
2022-10-12T05:57:00.146Z,13.70
2022-10-12T05:59:28.594Z,12.57
2022-10-12T06:01:56.403Z,11.67
2022-10-12T06:04:24.128Z,12.40
2022-10-12T06:06:51.860Z,13.07
2022-10-12T06:09:20.479Z,13.20
2022-10-12T06:11:48.250Z,13.27
2022-10-12T06:14:17.842Z,15.43
2022-10-12T06:16:45.520Z,17.43
2022-10-12T06:19:14.102Z,18.33
2022-10-12T06:21:41.812Z,18.33
2022-10-12T06:24:10.371Z,17.57
2022-10-12T06:26:38.088Z,19.70
2022-10-12T06:29:06.251Z,21.20
2022-10-12T06:31:35.281Z,22.63
2022-10-12T06:34:03.353Z,20.30
2022-10-12T06:36:31.042Z,19.90
2022-10-12T06:38:59.025Z,21.43
2022-10-12T06:41:26.717Z,19.07
2022-10-12T06:43:54.730Z,17.23
2022-10-12T06:46:22.415Z,19.00
2022-10-12T06:48:51.898Z,21.07
2022-10-12T06:51:19.554Z,20.57
2022-10-12T06:53:47.901Z,22.60
2022-10-12T06:56:15.593Z,20.63
2022-10-12T06:58:44.091Z,22.30
2022-10-12T07:01:11.805Z,22.27
2022-10-12T07:03:39.676Z,22.03
2022-10-12T07:06:11.364Z,22.57
2022-10-12T07:08:41.014Z,21.13
2022-10-12T07:11:10.775Z,21.30
2022-10-12T07:13:39.022Z,26.37
2022-10-12T07:16:07.483Z,21.73
2022-10-12T07:18:35.691Z,20.27
2022-10-12T07:21:04.000Z,19.43
2022-10-12T07:23:34.464Z,21.47
2022-10-12T07:26:02.484Z,22.93
2022-10-12T07:28:30.580Z,23.00
2022-10-12T07:31:03.049Z,19.83
2022-10-12T07:33:34.971Z,20.63
2022-10-12T07:36:13.901Z,22.03
2022-10-12T07:38:45.054Z,18.90
2022-10-12T07:41:14.506Z,20.77
2022-10-12T07:43:43.050Z,18.97
2022-10-12T07:46:12.379Z,18.23
2022-10-12T07:48:45.655Z,20.17
2022-10-12T07:51:15.739Z,20.97
2022-10-12T07:53:44.793Z,18.17
2022-10-12T07:56:16.361Z,18.00
2022-10-12T07:58:44.706Z,20.03
2022-10-12T08:01:13.141Z,19.73
2022-10-12T08:03:41.304Z,19.10
2022-10-12T08:06:10.869Z,19.67
2022-10-12T08:08:39.163Z,19.20
2022-10-12T08:11:09.008Z,16.37
2022-10-12T08:13:38.293Z,15.70
2022-10-12T08:16:09.084Z,16.73
2022-10-12T08:18:37.160Z,18.67
2022-10-12T08:21:05.319Z,18.23
2022-10-12T08:23:33.662Z,17.83
2022-10-12T08:26:01.716Z,17.97
2022-10-12T08:28:31.675Z,17.20
2022-10-12T08:30:59.408Z,19.30
2022-10-12T08:33:30.299Z,18.50
2022-10-12T08:35:58.015Z,16.43
2022-10-12T08:38:25.706Z,18.20
2022-10-12T08:41:01.057Z,17.73
2022-10-12T08:43:40.482Z,16.47
2022-10-12T08:46:09.087Z,20.43
2022-10-12T08:48:48.099Z,19.53
2022-10-12T08:51:19.994Z,17.77
2022-10-12T08:53:53.530Z,22.27
2022-10-12T08:56:22.291Z,19.73
2022-10-12T08:58:53.842Z,19.03
2022-10-12T09:01:29.052Z,16.77
2022-10-12T09:04:18.247Z,17.10
2022-10-12T09:06:48.893Z,14.57
2022-10-12T09:09:37.966Z,17.67
2022-10-12T09:12:25.170Z,19.40
2022-10-12T09:15:01.821Z,18.87
2022-10-12T09:17:38.142Z,17.97
2022-10-12T09:20:16.826Z,19.50
2022-10-12T09:22:48.499Z,18.43
2022-10-12T09:25:18.367Z,18.43
2022-10-12T09:27:47.339Z,17.67
2022-10-12T09:30:19.070Z,16.90
2022-10-12T09:33:04.453Z,15.07
2022-10-12T09:35:32.801Z,15.17
2022-10-12T09:38:01.908Z,15.27
2022-10-12T09:40:32.449Z,16.33
2022-10-12T09:43:01.902Z,17.50
2022-10-12T09:45:34.397Z,15.63
2022-10-12T09:48:18.201Z,17.67
2022-10-12T09:50:51.380Z,14.50
2022-10-12T09:53:27.873Z,17.10
2022-10-12T09:56:00.936Z,14.23
2022-10-12T09:58:30.302Z,15.33
2022-10-12T10:01:23.335Z,15.17
2022-10-12T10:04:07.950Z,18.43
2022-10-12T10:06:35.989Z,16.40
2022-10-12T10:09:04.140Z,14.23
2022-10-12T10:11:32.562Z,14.23
2022-10-12T10:14:02.552Z,15.27
2022-10-12T10:16:32.042Z,14.57
2022-10-12T10:19:02.164Z,13.40
2022-10-12T10:21:33.109Z,14.40
2022-10-12T10:24:02.810Z,13.57
2022-10-12T10:26:51.129Z,13.03
2022-10-12T10:29:31.982Z,11.90
2022-10-12T10:32:24.064Z,11.23
2022-10-12T10:35:03.122Z,9.13
2022-10-12T10:37:31.822Z,9.57
2022-10-12T10:40:00.538Z,12.73
2022-10-12T10:42:31.803Z,13.13
2022-10-12T10:45:03.261Z,12.03
2022-10-12T10:47:34.516Z,11.43
2022-10-12T10:50:04.652Z,11.77
2022-10-12T10:52:34.657Z,9.97
2022-10-12T10:55:19.756Z,9.33
2022-10-12T10:57:56.733Z,10.03
2022-10-12T11:00:41.191Z,8.30
2022-10-12T11:03:17.199Z,9.87
2022-10-12T11:05:50.667Z,12.87
2022-10-12T11:08:23.466Z,11.33
2022-10-12T11:10:57.351Z,8.90
2022-10-12T11:13:30.493Z,9.33
2022-10-12T11:16:04.007Z,10.83
2022-10-12T11:18:39.451Z,10.70
2022-10-12T11:21:13.469Z,10.70
2022-10-12T11:23:47.130Z,7.57
2022-10-12T11:26:24.171Z,10.73
2022-10-12T11:28:54.234Z,9.33
2022-10-12T11:31:27.406Z,9.33
2022-10-12T11:34:00.561Z,8.17
2022-10-12T11:36:31.843Z,8.90
2022-10-12T11:39:06.862Z,10.97
2022-10-12T11:42:03.238Z,8.63
2022-10-12T11:44:40.853Z,8.87
2022-10-12T11:47:17.200Z,11.07
2022-10-12T11:49:55.369Z,9.07
2022-10-12T11:52:28.756Z,8.93
2022-10-12T11:55:07.059Z,9.13
2022-10-12T11:57:38.721Z,10.47
2022-10-12T12:00:16.937Z,8.27
2022-10-12T12:02:50.136Z,7.47
2022-10-12T12:05:19.948Z,7.57
2022-10-12T12:07:50.078Z,11.30
2022-10-12T12:11:04.271Z,6.47
2022-10-12T12:13:33.089Z,7.77
2022-10-12T12:16:35.251Z,8.87
2022-10-12T12:19:41.327Z,9.90
2022-10-12T12:22:20.478Z,8.43
2022-10-12T12:25:05.358Z,9.93
2022-10-12T12:27:37.063Z,8.37
2022-10-12T12:30:21.372Z,9.17
2022-10-12T12:32:52.590Z,9.50
2022-10-12T12:35:25.422Z,8.67
2022-10-12T12:38:08.701Z,9.90
2022-10-12T12:40:36.933Z,11.00
2022-10-12T12:43:20.210Z,9.63
2022-10-12T12:45:57.179Z,7.40
2022-10-12T12:48:58.683Z,7.67
2022-10-12T12:51:35.234Z,7.50
2022-10-12T12:54:07.927Z,7.27
2022-10-12T12:56:42.316Z,7.63
2022-10-12T12:59:29.385Z,6.93
2022-10-12T13:02:21.607Z,6.60
2022-10-12T13:05:08.942Z,7.37
2022-10-12T13:08:03.275Z,8.67
2022-10-12T13:10:44.557Z,8.10
2022-10-12T13:13:39.048Z,6.50
2022-10-12T13:16:57.213Z,8.27
2022-10-12T13:19:13.554Z,8.77
2022-10-12T13:21:45.320Z,9.33
2022-10-12T13:24:17.874Z,7.93
2022-10-12T13:26:49.839Z,9.27
2022-10-12T13:29:24.148Z,10.63
2022-10-12T13:31:54.916Z,8.33
2022-10-12T13:34:26.599Z,6.93
2022-10-12T13:37:00.247Z,7.87
2022-10-12T13:39:29.577Z,8.30
2022-10-12T13:42:01.801Z,8.30
2022-10-12T13:44:34.393Z,9.43
2022-10-12T13:47:09.403Z,7.77
2022-10-12T13:49:44.342Z,6.00
2022-10-12T13:52:23.227Z,6.40
2022-10-12T13:54:52.255Z,7.70
2022-10-12T13:57:29.066Z,6.83
2022-10-12T14:00:00.237Z,7.57
2022-10-12T14:02:30.445Z,10.03
2022-10-12T14:05:01.245Z,8.77
2022-10-12T14:07:33.078Z,7.77
2022-10-12T14:10:03.885Z,7.60
2022-10-12T14:12:36.835Z,7.03
2022-10-12T14:15:07.283Z,5.90
2022-10-12T14:17:34.967Z,4.30
2022-10-12T14:20:17.994Z,6.23
2022-10-12T14:22:48.972Z,6.37
2022-10-12T14:25:19.990Z,6.80
2022-10-12T14:27:55.778Z,5.10
2022-10-12T14:30:26.526Z,6.03
2022-10-12T14:32:59.491Z,5.87
2022-10-12T14:35:29.553Z,5.97
2022-10-12T14:37:57.636Z,4.77
2022-10-12T14:40:30.890Z,6.43
2022-10-12T14:43:03.457Z,8.00
2022-10-12T14:45:32.329Z,6.57
2022-10-12T14:48:01.444Z,5.87
2022-10-12T14:50:31.985Z,6.13
2022-10-12T14:53:03.578Z,6.80
2022-10-12T14:55:32.906Z,5.40
2022-10-12T14:58:02.608Z,6.67
2022-10-12T15:00:32.126Z,4.37
2022-10-12T15:02:59.925Z,5.83
2022-10-12T15:05:31.995Z,5.23
2022-10-12T15:08:00.326Z,4.60
2022-10-12T15:10:30.403Z,4.77
2022-10-12T15:12:58.058Z,3.67
2022-10-12T15:15:33.510Z,5.97
2022-10-12T15:18:01.314Z,5.67
2022-10-12T15:20:30.861Z,6.27
2022-10-12T15:22:59.134Z,6.33
2022-10-12T15:25:33.804Z,6.20
2022-10-12T15:28:01.835Z,7.43
2022-10-12T15:30:31.273Z,6.30
2022-10-12T15:32:58.981Z,5.90
2022-10-12T15:35:28.825Z,7.37
2022-10-12T15:37:57.238Z,8.37
2022-10-12T15:40:25.784Z,8.60
2022-10-12T15:42:53.454Z,6.77
2022-10-12T15:45:24.346Z,9.03
2022-10-12T15:47:54.491Z,6.17
2022-10-12T15:50:24.644Z,7.03
2022-10-12T15:52:53.766Z,7.23
2022-10-12T15:55:24.359Z,6.63
2022-10-12T15:57:52.525Z,8.10
2022-10-12T16:00:22.606Z,8.67
2022-10-12T16:02:50.402Z,8.50
2022-10-12T16:05:22.008Z,8.63
2022-10-12T16:07:49.957Z,7.60
2022-10-12T16:10:19.705Z,8.43
2022-10-12T16:12:50.673Z,10.03
2022-10-12T16:15:21.780Z,8.47
2022-10-12T16:17:49.793Z,9.13
2022-10-12T16:20:18.993Z,12.57
2022-10-12T16:22:48.852Z,8.50
2022-10-12T16:25:19.071Z,10.53
2022-10-12T16:27:47.211Z,9.77
2022-10-12T16:30:15.756Z,9.77
2022-10-12T16:32:43.598Z,8.80
2022-10-12T16:35:12.660Z,10.17
2022-10-12T16:37:40.874Z,11.40
2022-10-12T16:40:12.382Z,9.87
2022-10-12T16:42:40.255Z,8.90
2022-10-12T16:45:09.002Z,9.10
2022-10-12T16:47:41.985Z,8.63
2022-10-12T16:50:11.412Z,8.60
2022-10-12T16:52:39.805Z,8.53
2022-10-12T16:55:08.412Z,8.70
2022-10-12T16:57:38.581Z,6.80
2022-10-12T17:00:07.638Z,6.40
2022-10-12T17:02:35.652Z,6.43
2022-10-12T17:05:03.847Z,8.17
2022-10-12T17:07:31.599Z,8.37
2022-10-12T17:09:59.349Z,8.67
2022-10-12T17:12:27.600Z,8.10
2022-10-12T17:14:56.926Z,7.53
2022-10-12T17:17:24.588Z,10.03
2022-10-12T17:19:52.801Z,6.70
2022-10-12T17:22:20.555Z,8.13
2022-10-12T17:24:48.650Z,8.03
2022-10-12T17:27:16.797Z,8.53
2022-10-12T17:29:45.083Z,7.67
2022-10-12T17:32:14.988Z,8.80
2022-10-12T17:34:45.003Z,8.43
2022-10-12T17:37:14.747Z,8.90
2022-10-12T17:39:44.936Z,11.93
2022-10-12T17:42:13.739Z,17.07
2022-10-12T17:44:41.677Z,14.13
2022-10-12T17:47:09.642Z,11.43
2022-10-12T17:49:38.633Z,11.33
2022-10-12T17:52:07.333Z,9.40
2022-10-12T17:54:35.373Z,10.33
2022-10-12T17:57:03.527Z,9.20
2022-10-12T17:59:31.186Z,9.90
2022-10-12T18:01:59.050Z,12.20
2022-10-12T18:04:26.728Z,11.83
2022-10-12T18:06:56.092Z,12.10
2022-10-12T18:09:23.744Z,11.47
2022-10-12T18:11:51.711Z,11.17
2022-10-12T18:14:19.722Z,10.07
2022-10-12T18:16:48.028Z,8.23
2022-10-12T18:19:15.723Z,8.07
2022-10-12T18:21:44.078Z,8.67
2022-10-12T18:24:17.297Z,10.83
2022-10-12T18:26:47.033Z,9.30
2022-10-12T18:29:18.482Z,9.87
2022-10-12T18:31:46.273Z,8.03
2022-10-12T18:34:13.992Z,8.67
2022-10-12T18:36:42.801Z,8.13
2022-10-12T18:39:10.705Z,7.93
2022-10-12T18:41:39.851Z,8.20
2022-10-12T18:44:09.038Z,8.10
2022-10-12T18:46:37.474Z,9.10
2022-10-12T18:49:07.889Z,9.80
2022-10-12T18:51:38.532Z,7.83
2022-10-12T18:54:06.827Z,8.93
2022-10-12T18:56:36.905Z,7.43
2022-10-12T18:59:07.289Z,7.57
2022-10-12T19:01:35.662Z,8.70
2022-10-12T19:04:03.961Z,8.73
2022-10-12T19:06:34.973Z,7.57
2022-10-12T19:09:02.793Z,7.70
2022-10-12T19:11:31.541Z,5.10
2022-10-12T19:14:01.250Z,6.23
2022-10-12T19:16:30.637Z,5.53
2022-10-12T19:19:00.678Z,5.13
2022-10-12T19:21:28.966Z,4.47
2022-10-12T19:23:56.967Z,4.17
2022-10-12T19:26:27.906Z,3.23
2022-10-12T19:28:57.675Z,3.37
2022-10-12T19:31:27.346Z,3.07
2022-10-12T19:33:57.882Z,3.70
2022-10-12T19:36:25.842Z,5.03
2022-10-12T19:38:56.336Z,4.23
2022-10-12T19:41:24.483Z,4.90
2022-10-12T19:43:53.318Z,4.17
2022-10-12T19:46:21.438Z,5.60
2022-10-12T19:48:50.864Z,4.90
2022-10-12T19:51:21.310Z,5.37
2022-10-12T19:53:49.481Z,6.17
2022-10-12T19:56:20.728Z,5.77
2022-10-12T19:58:50.051Z,6.07
2022-10-12T20:01:20.095Z,7.93
2022-10-12T20:03:49.946Z,6.90
2022-10-12T20:06:18.441Z,5.80
2022-10-12T20:08:48.659Z,7.03
2022-10-12T20:11:22.525Z,6.23
2022-10-12T20:13:52.624Z,7.60
2022-10-12T20:16:21.353Z,8.17
2022-10-12T20:18:49.812Z,7.73
2022-10-12T20:21:19.887Z,7.77
2022-10-12T20:23:50.302Z,9.50
2022-10-12T20:26:20.021Z,12.57
2022-10-12T20:28:48.573Z,10.87
2022-10-12T20:31:18.523Z,10.13
2022-10-12T20:33:46.938Z,8.43
2022-10-12T20:36:20.914Z,6.70
2022-10-12T20:38:50.300Z,5.67
2022-10-12T20:41:18.635Z,5.43
2022-10-12T20:43:46.349Z,5.40
2022-10-12T20:46:15.977Z,4.20
2022-10-12T20:48:45.785Z,3.93
2022-10-12T20:51:18.760Z,3.50
2022-10-12T20:53:46.820Z,3.97
2022-10-12T20:56:15.838Z,3.67
2022-10-12T20:58:43.806Z,3.30
2022-10-12T21:01:13.312Z,3.93
2022-10-12T21:03:42.187Z,4.07
2022-10-12T21:06:11.627Z,3.70
2022-10-12T21:08:39.944Z,4.80
2022-10-12T21:11:08.852Z,5.53
2022-10-12T21:13:41.357Z,7.70
2022-10-12T21:16:10.472Z,7.17
2022-10-12T21:18:40.097Z,5.93
2022-10-12T21:21:11.431Z,6.23
2022-10-12T21:23:40.848Z,5.00
2022-10-12T21:26:13.555Z,5.30
2022-10-12T21:28:42.715Z,4.60
2022-10-12T21:31:11.142Z,3.90
2022-10-12T21:33:40.179Z,5.27
2022-10-12T21:36:09.500Z,5.67
2022-10-12T21:38:37.859Z,4.70
2022-10-12T21:41:06.659Z,6.57
2022-10-12T21:43:34.641Z,7.67
2022-10-12T21:46:05.223Z,6.33
2022-10-12T21:48:33.968Z,4.23
2022-10-12T21:51:02.533Z,7.13
2022-10-12T21:53:30.698Z,6.57
2022-10-12T21:55:58.481Z,5.03
2022-10-12T21:58:26.183Z,6.43
2022-10-12T22:00:55.133Z,6.27
2022-10-12T22:03:24.268Z,6.17
2022-10-12T22:05:52.400Z,6.47
2022-10-12T22:08:20.098Z,8.57
2022-10-12T22:10:48.162Z,11.00
2022-10-12T22:13:15.864Z,8.90
2022-10-12T22:15:47.326Z,9.23
2022-10-12T22:18:15.014Z,8.57
2022-10-12T22:20:44.352Z,10.43
2022-10-12T22:23:12.039Z,10.00
2022-10-12T22:25:40.197Z,12.87
2022-10-12T22:28:07.861Z,13.27
2022-10-12T22:30:40.439Z,12.23
2022-10-12T22:33:08.169Z,12.87
2022-10-12T22:35:36.041Z,12.30
2022-10-12T22:38:05.075Z,14.07
2022-10-12T22:40:33.115Z,15.70
2022-10-12T22:43:00.827Z,13.77
2022-10-12T22:45:28.790Z,12.23
2022-10-12T22:47:56.467Z,11.87
2022-10-12T22:50:24.862Z,11.73
2022-10-12T22:52:52.541Z,12.27
2022-10-12T22:55:22.194Z,11.07
2022-10-12T22:57:49.911Z,8.87
2022-10-12T23:00:18.539Z,9.63
2022-10-12T23:02:46.218Z,10.63
2022-10-12T23:05:14.543Z,9.33
2022-10-12T23:07:42.232Z,9.17
2022-10-12T23:10:10.411Z,9.20
2022-10-12T23:12:39.746Z,8.03
2022-10-12T23:15:08.519Z,8.03
2022-10-12T23:17:36.209Z,6.90
2022-10-12T23:20:05.062Z,7.77
2022-10-12T23:22:33.087Z,7.13
2022-10-12T23:25:01.091Z,8.07
2022-10-12T23:27:29.535Z,8.43
2022-10-12T23:29:58.910Z,6.30
2022-10-12T23:32:26.664Z,6.87
2022-10-12T23:34:54.933Z,6.60
2022-10-12T23:37:22.580Z,7.83
2022-10-12T23:39:50.911Z,7.33
2022-10-12T23:42:18.783Z,6.93
2022-10-12T23:44:47.038Z,5.93
2022-10-12T23:47:16.096Z,6.07
2022-10-12T23:49:44.838Z,7.33
2022-10-12T23:52:13.543Z,5.97
2022-10-12T23:54:41.898Z,7.10
2022-10-12T23:57:28.099Z,6.87
2022-10-12T23:59:57.570Z,6.60
